Archiv-/Tagesdaten

--Timestamp---	Temp	Chill	HIndex	Humid	Dewpt	 Wind 	HiWind	WindDir	Rain 	Barom	Solar	 ET  	 UV 
--------------	----	-----	------	-----	-----	------	------	-------	-----	-----	-----	-----	----
20100726 00:00	13.2	13.2	13.2	75	8.9	2	6	292	0.0	1014.8	0	0.025	0.0
20100726 00:05	13.2	13.2	13.2	75	8.8	2	5	292	0.0	1014.8	0	0.000	0.0
20100726 00:10	13.2	13.2	13.2	75	8.8	0	3	292	0.0	1014.8	0	0.000	0.0
20100726 00:15	13.2	13.2	13.2	75	8.8	0	3	292	0.0	1014.8	0	0.000	0.0
20100726 00:20	13.2	13.2	13.2	75	8.8	0	2	292	0.0	1014.7	0	0.000	0.0
20100726 00:25	13.2	13.2	13.2	75	8.8	0	2	292	0.0	1014.7	0	0.000	0.0
20100726 00:30	13.2	13.2	13.2	75	8.9	0	3	292	0.0	1014.8	0	0.000	0.0
20100726 00:35	13.2	13.2	13.2	75	8.9	0	3	292	0.0	1014.8	0	0.000	0.0
20100726 00:40	13.2	13.2	13.2	76	9.1	0	0	-100000	0.0	1014.8	0	0.000	0.0
20100726 00:45	13.2	13.2	13.2	76	9.1	0	2	292	0.0	1014.7	0	0.000	0.0
20100726 00:50	13.2	13.2	13.2	76	9.1	0	2	292	0.0	1014.7	0	0.000	0.0
20100726 00:55	13.2	13.2	13.2	77	9.3	0	2	292	0.0	1014.7	0	0.000	0.0
20100726 01:00	13.3	13.3	13.3	77	9.3	0	0	-100000	0.0	1014.6	0	0.025	0.0
20100726 01:05	13.2	13.2	13.2	77	9.3	0	2	292	0.0	1014.6	0	0.000	0.0
20100726 01:10	13.3	13.3	13.3	77	9.3	0	2	292	0.0	1014.5	0	0.000	0.0
20100726 01:15	13.3	13.3	13.3	77	9.3	0	2	292	0.0	1014.5	0	0.000	0.0
20100726 01:20	13.3	13.3	13.3	77	9.3	0	5	292	0.0	1014.5	0	0.000	0.0
20100726 01:25	13.3	13.3	13.3	77	9.4	0	3	292	0.0	1014.5	0	0.000	0.0
20100726 01:30	13.3	13.3	13.3	77	9.4	0	2	292	0.0	1014.5	0	0.000	0.0
20100726 01:35	13.3	13.3	13.3	77	9.4	2	6	292	0.0	1014.5	0	0.000	0.0
20100726 01:40	13.4	13.4	13.4	77	9.4	0	5	292	0.0	1014.5	0	0.000	0.0
20100726 01:45	13.4	13.4	13.4	77	9.4	0	3	292	0.0	1014.4	0	0.000	0.0
20100726 01:50	13.4	13.4	13.4	77	9.4	2	3	292	0.0	1014.4	0	0.000	0.0
20100726 01:55	13.4	13.4	13.4	77	9.4	0	3	292	0.0	1014.4	0	0.000	0.0
20100726 02:00	13.4	13.4	13.4	77	9.4	0	3	292	0.0	1014.4	0	0.025	0.0
20100726 02:05	13.4	13.4	13.4	78	9.6	0	3	292	0.0	1014.3	0	0.000	0.0
20100726 02:10	13.4	13.4	13.4	78	9.6	0	2	292	0.0	1014.3	0	0.000	0.0
20100726 02:15	13.3	13.3	13.3	78	9.6	0	2	292	0.0	1014.3	0	0.000	0.0
20100726 02:20	13.3	13.3	13.3	78	9.6	0	2	292	0.0	1014.3	0	0.000	0.0
20100726 02:25	13.3	13.3	13.3	78	9.5	0	3	292	0.0	1014.2	0	0.000	0.0
20100726 02:30	13.3	13.3	13.3	78	9.5	2	5	292	0.0	1014.2	0	0.000	0.0
20100726 02:35	13.3	13.3	13.3	78	9.5	2	5	292	0.0	1014.1	0	0.000	0.0
20100726 02:40	13.3	13.3	13.3	78	9.5	3	6	292	0.0	1014.1	0	0.000	0.0
20100726 02:45	13.3	13.3	13.3	78	9.5	2	5	292	0.0	1014.0	0	0.000	0.0
20100726 02:50	13.3	13.3	13.3	79	9.7	2	5	292	0.0	1014.0	0	0.000	0.0
20100726 02:55	13.3	13.3	13.3	79	9.7	2	6	292	0.0	1013.9	0	0.000	0.0
20100726 03:00	13.2	13.2	13.2	80	9.8	2	5	292	0.0	1013.9	0	0.025	0.0
20100726 03:05	13.2	13.2	13.2	80	9.8	0	3	292	0.0	1013.7	0	0.000	0.0
20100726 03:10	13.2	13.2	13.2	80	9.8	2	5	292	0.0	1013.7	0	0.000	0.0
20100726 03:15	13.1	13.1	13.1	80	9.7	0	5	292	0.0	1013.7	0	0.000	0.0
20100726 03:20	13.1	13.1	13.1	81	9.9	2	5	292	0.0	1013.7	0	0.000	0.0
20100726 03:25	13.1	13.1	13.1	81	9.9	0	5	292	0.0	1013.7	0	0.000	0.0
20100726 03:30	13.0	13.0	13.0	81	9.8	2	5	292	0.0	1013.7	0	0.000	0.0
20100726 03:35	13.0	13.0	13.0	85	10.5	2	5	292	0.0	1013.7	0	0.000	0.0
20100726 03:40	12.9	12.9	12.9	82	9.9	2	5	292	0.0	1013.7	0	0.000	0.0
20100726 03:45	12.9	12.9	12.9	83	10.1	2	5	292	0.0	1013.7	0	0.000	0.0
20100726 03:50	12.8	12.8	12.8	83	10.0	2	5	292	0.0	1013.6	0	0.000	0.0
20100726 03:55	12.8	12.8	12.8	83	10.0	2	5	292	0.0	1013.6	0	0.000	0.0
20100726 04:00	12.8	12.8	12.8	83	10.0	2	5	292	0.0	1013.6	0	0.025	0.0
20100726 04:05	12.7	12.7	12.7	83	9.9	3	6	292	0.0	1013.6	0	0.000	0.0
20100726 04:10	12.7	12.7	12.7	83	9.9	0	3	292	0.0	1013.5	0	0.000	0.0
20100726 04:15	12.6	12.6	12.6	84	9.9	3	6	292	0.0	1013.5	0	0.000	0.0
20100726 04:20	12.4	12.4	12.4	84	9.8	3	6	292	0.0	1013.6	0	0.000	0.0
20100726 04:25	12.3	12.3	12.3	84	9.7	5	6	292	0.0	1013.5	0	0.000	0.0
20100726 04:30	12.2	12.2	12.2	84	9.5	5	6	292	0.0	1013.5	0	0.000	0.0
20100726 04:35	12.1	12.1	12.1	84	9.4	5	8	292	0.0	1013.5	0	0.000	0.0
20100726 04:40	11.9	11.9	11.9	85	9.4	3	6	270	0.0	1013.6	0	0.000	0.0
20100726 04:45	11.7	11.7	11.7	85	9.3	3	5	270	0.0	1013.6	0	0.000	0.0
20100726 04:50	11.6	11.6	11.6	85	9.2	3	6	270	0.0	1013.6	0	0.000	0.0
20100726 04:55	11.5	11.5	11.5	85	9.1	3	6	270	0.0	1013.7	0	0.000	0.0
20100726 05:00	11.4	11.4	11.4	86	9.1	2	6	270	0.0	1013.7	0	0.025	0.0
20100726 05:05	11.3	11.3	11.3	86	9.0	3	6	270	0.0	1013.7	0	0.000	0.0
20100726 05:10	11.2	11.2	11.2	86	9.0	3	6	270	0.0	1013.8	0	0.000	0.0
20100726 05:15	11.2	11.2	11.2	86	8.9	3	6	270	0.0	1013.7	0	0.000	0.0
20100726 05:20	11.1	11.1	11.1	86	8.9	5	6	270	0.0	1013.7	0	0.000	0.0
20100726 05:25	11.1	11.1	11.1	86	8.8	5	8	270	0.0	1013.7	0	0.000	0.0
20100726 05:30	11.0	11.0	11.0	86	8.7	6	8	270	0.0	1013.7	0	0.000	0.0
20100726 05:35	10.9	10.9	10.9	86	8.7	5	8	270	0.0	1013.7	0	0.000	0.0
20100726 05:40	10.8	10.8	10.8	86	8.6	5	6	270	0.0	1013.7	0	0.000	0.0
20100726 05:45	10.8	10.8	10.8	86	8.5	5	6	270	0.0	1013.8	0	0.000	0.0
20100726 05:50	10.7	10.7	10.7	87	8.6	5	8	270	0.0	1013.8	0	0.000	0.0
20100726 05:55	10.6	10.6	10.6	87	8.5	5	6	270	0.0	1013.8	3	0.000	0.0
20100726 06:00	10.6	10.6	10.6	87	8.5	5	6	270	0.0	1013.8	5	0.000	0.0
20100726 06:05	10.6	10.6	10.6	87	8.5	5	8	270	0.0	1013.8	7	0.000	0.0
20100726 06:10	10.6	10.6	10.6	87	8.5	3	6	270	0.0	1013.8	8	0.000	0.0
20100726 06:15	10.6	10.6	10.6	87	8.5	3	5	270	0.0	1013.8	11	0.000	0.0
20100726 06:20	10.5	10.5	10.5	87	8.4	3	6	270	0.0	1013.7	13	0.000	0.0
20100726 06:25	10.4	10.4	10.4	87	8.4	3	8	270	0.0	1013.8	17	0.000	0.0
20100726 06:30	10.4	10.4	10.4	88	8.5	5	8	270	0.0	1013.8	23	0.000	0.0
20100726 06:35	10.5	10.5	10.5	88	8.6	3	6	270	0.0	1013.8	29	0.000	0.0
20100726 06:40	10.6	10.6	10.6	88	8.7	0	2	270	0.0	1013.7	34	0.000	0.0
20100726 06:45	10.6	10.6	10.6	87	8.5	0	2	270	0.0	1013.8	37	0.000	0.0
20100726 06:50	10.7	10.7	10.7	87	8.6	2	6	270	0.0	1013.7	37	0.000	0.0
20100726 06:55	10.7	10.7	10.7	87	8.6	2	5	270	0.0	1013.7	37	0.000	0.0
20100726 07:00	10.8	10.8	10.8	87	8.8	2	5	270	0.0	1013.7	38	0.025	0.0
20100726 07:05	10.9	10.9	10.9	87	8.9	0	3	270	0.0	1013.9	57	0.000	0.0
20100726 07:10	11.1	11.1	11.1	87	9.0	2	6	270	0.0	1013.8	101	0.000	0.0
20100726 07:15	11.3	11.3	11.3	87	9.2	3	6	270	0.0	1013.8	122	0.000	0.0
20100726 07:20	11.4	11.4	11.4	87	9.4	2	5	270	0.0	1013.8	126	0.000	0.0
20100726 07:25	11.7	11.7	11.7	87	9.6	0	2	270	0.0	1013.8	151	0.000	0.0
20100726 07:30	11.9	11.9	11.9	87	9.8	3	6	270	0.0	1013.8	180	0.000	0.2
20100726 07:35	12.3	12.3	12.3	86	10.0	3	8	270	0.0	1013.7	203	0.000	0.5
20100726 07:40	12.7	12.7	12.7	85	10.2	5	6	270	0.0	1013.7	218	0.000	0.5
20100726 07:45	13.1	13.1	13.1	84	10.5	5	8	270	0.0	1013.7	225	0.000	0.6
20100726 07:50	13.5	13.5	13.5	83	10.7	3	6	270	0.0	1013.6	236	0.000	0.6
20100726 07:55	13.8	13.8	13.8	81	10.6	3	6	270	0.0	1013.6	248	0.000	0.7
20100726 08:00	14.1	14.1	14.1	80	10.7	5	8	270	0.0	1013.6	261	0.102	0.7
20100726 08:05	14.4	14.4	14.4	79	10.8	3	6	270	0.0	1013.8	269	0.000	0.8
20100726 08:10	14.7	14.7	14.7	79	11.1	5	8	270	0.0	1013.8	273	0.000	0.9
20100726 08:15	14.9	14.9	14.9	77	10.9	6	10	270	0.0	1013.7	302	0.000	1.0
20100726 08:20	15.0	15.0	15.0	76	10.8	5	10	270	0.0	1013.7	319	0.000	1.0
20100726 08:25	15.1	15.1	15.1	76	10.9	5	11	292	0.0	1013.7	333	0.000	1.1
20100726 08:30	15.2	15.2	15.2	76	11.0	6	10	270	0.0	1013.7	253	0.000	1.1
20100726 08:35	15.3	15.3	15.3	76	11.1	5	8	292	0.0	1013.7	209	0.000	1.0
20100726 08:40	15.3	15.3	15.3	76	11.1	2	5	292	0.0	1013.7	205	0.000	1.1
20100726 08:45	15.3	15.3	15.3	77	11.3	3	6	292	0.0	1013.7	210	0.000	1.1
20100726 08:50	15.3	15.3	15.3	76	11.1	5	10	292	0.0	1013.7	216	0.000	1.2
20100726 08:55	15.4	15.4	15.4	75	11.0	5	10	270	0.0	1013.6	230	0.000	1.3
20100726 09:00	15.6	15.6	15.6	75	11.1	5	10	270	0.0	1013.6	237	0.152	1.3
20100726 09:05	15.6	15.6	15.6	75	11.2	6	11	270	0.0	1013.8	244	0.000	1.3
20100726 09:10	15.7	15.7	15.7	74	11.0	5	11	292	0.0	1013.8	242	0.000	1.4
20100726 09:15	15.7	15.7	15.7	74	11.0	6	8	270	0.0	1013.8	235	0.000	1.4
20100726 09:20	15.8	15.8	15.8	75	11.4	5	8	270	0.0	1013.8	238	0.000	1.4
20100726 09:25	15.9	15.9	15.9	74	11.3	5	11	292	0.0	1013.8	252	0.000	1.6
20100726 09:30	16.0	16.0	16.0	73	11.2	6	11	270	0.0	1013.8	267	0.000	1.7
20100726 09:35	16.1	16.1	16.1	73	11.2	6	10	270	0.0	1013.8	273	0.000	1.8
20100726 09:40	16.1	16.1	16.1	73	11.2	10	14	270	0.0	1013.9	240	0.000	1.8
20100726 09:45	16.1	16.1	16.1	72	11.1	6	14	270	0.0	1013.9	245	0.000	1.9
20100726 09:50	16.2	16.2	16.2	73	11.3	5	8	292	0.0	1013.9	263	0.000	2.0
20100726 09:55	16.2	16.2	16.2	74	11.6	3	6	292	0.0	1013.9	248	0.000	2.0
20100726 10:00	16.3	16.3	16.3	73	11.4	3	6	292	0.0	1013.9	229	0.152	2.0
20100726 10:05	16.3	16.3	16.3	72	11.3	5	8	292	0.0	1013.9	234	0.000	2.1
20100726 10:10	16.3	16.3	16.3	72	11.3	5	8	292	0.0	1013.9	262	0.000	2.3
20100726 10:15	16.4	16.4	16.4	71	11.1	5	11	270	0.0	1013.9	304	0.000	2.6
20100726 10:20	16.5	16.5	16.5	71	11.2	6	14	270	0.0	1013.8	336	0.000	2.9
20100726 10:25	16.7	16.7	16.7	71	11.4	5	14	248	0.0	1013.8	409	0.000	3.3
20100726 10:30	16.9	16.9	16.9	69	11.2	8	14	248	0.0	1013.8	531	0.000	3.6
20100726 10:35	17.1	17.1	17.1	68	11.1	10	21	270	0.0	1013.7	635	0.000	4.0
20100726 10:40	17.2	17.2	17.2	66	10.8	11	18	248	0.0	1013.5	648	0.000	4.1
20100726 10:45	17.5	17.5	17.5	67	11.3	8	14	225	0.0	1013.5	730	0.000	4.3
20100726 10:50	17.8	17.8	17.8	64	10.9	10	18	270	0.0	1013.5	452	0.000	3.6
20100726 10:55	17.8	17.8	17.8	64	10.9	10	16	270	0.0	1013.4	472	0.000	4.0
20100726 11:00	18.0	18.0	18.0	63	10.8	6	14	270	0.0	1013.4	688	0.279	3.7
20100726 11:05	18.1	18.1	18.1	63	10.9	8	14	270	0.0	1013.4	186	0.000	2.5
20100726 11:10	17.9	17.9	17.9	64	11.0	6	14	270	0.0	1013.4	193	0.000	2.1
20100726 11:15	17.9	17.9	17.9	64	11.0	8	16	270	0.0	1013.4	216	0.000	2.3
20100726 11:20	17.8	17.8	17.8	62	10.4	10	18	270	0.0	1013.5	232	0.000	2.7
20100726 11:25	17.8	17.8	17.8	62	10.4	8	16	270	0.0	1013.4	279	0.000	3.2
20100726 11:30	17.9	17.9	17.9	63	10.8	11	18	292	0.0	1013.4	508	0.000	4.6
20100726 11:35	18.4	18.4	18.4	61	10.8	10	21	270	0.0	1013.3	961	0.000	6.0
20100726 11:40	18.9	18.9	18.9	59	10.7	10	19	270	0.0	1013.1	526	0.000	4.3
20100726 11:45	18.8	18.8	18.8	60	10.9	8	14	270	0.0	1013.1	282	0.000	3.3
20100726 11:50	18.6	18.6	18.6	59	10.4	10	18	270	0.0	1013.0	262	0.000	3.6
20100726 11:55	18.7	18.7	18.7	61	11.0	5	16	292	0.0	1013.0	876	0.000	6.5
20100726 12:00	19.2	19.2	19.2	61	11.5	8	18	292	0.0	1012.9	1016	0.305	6.9
20100726 12:05	19.5	19.5	19.5	59	11.3	10	21	315	0.0	1012.9	303	0.000	4.1
20100726 12:10	19.4	19.4	19.4	60	11.4	6	19	270	0.0	1012.9	603	0.000	5.1
20100726 12:15	19.6	19.6	19.6	57	10.8	8	16	315	0.0	1012.9	868	0.000	6.6
20100726 12:20	19.6	19.6	19.6	58	11.1	8	16	270	0.0	1012.8	859	0.000	6.4
20100726 12:25	19.7	19.7	19.7	57	10.9	6	11	248	0.0	1012.7	867	0.000	6.9
20100726 12:30	19.9	19.9	19.9	56	10.8	6	16	270	0.0	1012.6	911	0.000	7.1
20100726 12:35	20.2	20.2	20.2	53	10.3	6	14	315	0.0	1012.5	879	0.000	6.8
20100726 12:40	20.4	20.4	20.4	52	10.2	8	18	248	0.0	1012.5	889	0.000	7.3
20100726 12:45	20.6	20.6	20.6	52	10.4	5	16	270	0.0	1012.5	815	0.000	6.4
20100726 12:50	20.7	20.7	20.7	53	10.8	8	21	248	0.0	1012.5	1013	0.000	7.1
20100726 12:55	20.8	20.8	20.8	55	11.4	8	21	292	0.0	1012.4	231	0.000	2.9
20100726 13:00	20.4	20.4	20.4	54	10.8	13	23	292	0.0	1012.4	219	0.457	2.5
20100726 13:05	20.0	20.0	20.0	57	11.2	8	16	292	0.0	1012.3	217	0.000	3.1
20100726 13:10	19.8	19.8	19.8	54	10.2	8	16	292	0.0	1012.3	208	0.000	3.9
20100726 13:15	19.8	19.8	19.8	55	10.5	8	21	270	0.0	1012.2	922	0.000	7.4
20100726 13:20	20.3	20.3	20.3	52	10.1	6	14	292	0.0	1012.1	942	0.000	7.6
20100726 13:25	20.6	20.6	20.6	54	11.0	11	21	315	0.0	1012.1	206	0.000	4.4
20100726 13:30	20.3	20.3	20.3	56	11.2	11	23	292	0.0	1012.0	179	0.000	3.6
20100726 13:35	20.0	20.0	20.0	56	10.9	13	24	315	0.0	1012.1	530	0.000	6.0
20100726 13:40	20.1	20.1	20.1	55	10.8	13	21	292	0.0	1012.1	894	0.000	7.3
20100726 13:45	20.4	20.4	20.4	55	11.1	11	23	315	0.0	1012.1	893	0.000	7.5
20100726 13:50	20.7	20.7	20.7	53	10.8	11	24	292	0.0	1012.2	904	0.000	7.5
20100726 13:55	20.9	20.9	20.9	50	10.1	13	23	292	0.0	1011.9	877	0.000	7.4
20100726 14:00	21.2	21.2	21.2	47	9.4	13	19	270	0.0	1012.0	868	0.457	7.4
20100726 14:05	21.3	21.3	21.3	46	9.2	13	23	292	0.0	1012.0	871	0.000	7.5
20100726 14:10	21.4	21.4	21.4	49	10.3	13	21	292	0.0	1012.0	873	0.000	7.4
20100726 14:15	21.6	21.6	21.6	47	9.8	11	23	270	0.0	1011.9	890	0.000	7.3
20100726 14:20	21.4	21.4	21.4	53	11.5	18	27	292	0.0	1012.0	905	0.000	7.2
20100726 14:25	21.3	21.3	21.3	53	11.4	14	24	292	0.0	1011.9	882	0.000	7.1
20100726 14:30	21.3	21.3	21.3	55	11.9	16	29	292	0.0	1012.1	875	0.000	7.0
20100726 14:35	21.3	21.3	21.3	55	11.9	18	32	270	0.0	1011.9	879	0.000	6.9
20100726 14:40	21.2	21.2	21.2	56	12.0	16	32	292	0.0	1011.9	850	0.000	6.8
20100726 14:45	21.1	21.1	21.1	53	11.1	18	29	292	0.0	1012.1	835	0.000	6.7
20100726 14:50	21.0	21.0	21.0	54	11.3	14	27	292	0.0	1012.1	817	0.000	6.5
20100726 14:55	21.3	21.3	21.3	51	10.7	14	26	292	0.0	1012.1	807	0.000	6.4
20100726 15:00	21.2	21.2	21.2	51	10.7	13	26	270	0.0	1012.0	801	0.610	6.3
20100726 15:05	21.2	21.2	21.2	51	10.6	13	21	292	0.0	1012.2	796	0.000	6.2
20100726 15:10	21.3	21.3	21.3	50	10.5	11	24	292	0.0	1012.2	788	0.000	6.1
20100726 15:15	21.3	21.3	21.3	49	10.1	13	23	292	0.0	1012.2	785	0.000	6.0
20100726 15:20	21.2	21.2	21.2	50	10.3	14	23	292	0.0	1012.2	783	0.000	5.9
20100726 15:25	21.2	21.2	21.2	49	10.0	14	26	270	0.0	1012.1	777	0.000	5.8
20100726 15:30	21.3	21.3	21.3	49	10.2	16	24	292	0.0	1012.0	767	0.000	5.5
20100726 15:35	21.4	21.4	21.4	52	11.2	13	24	270	0.0	1011.9	761	0.000	5.5
20100726 15:40	21.5	21.5	21.5	50	10.6	16	24	270	0.0	1011.9	762	0.000	5.3
20100726 15:45	21.6	21.6	21.6	52	11.3	13	23	270	0.0	1011.9	756	0.000	5.2
20100726 15:50	21.7	21.7	21.7	53	11.7	14	23	270	0.0	1011.9	744	0.000	5.1
20100726 15:55	21.4	21.4	21.4	53	11.5	18	26	292	0.0	1012.0	750	0.000	4.9
20100726 16:00	21.4	21.4	21.4	54	11.7	16	27	292	0.0	1012.0	752	0.559	4.8
20100726 16:05	21.4	21.4	21.4	53	11.4	16	26	270	0.0	1012.1	747	0.000	4.4
20100726 16:10	21.2	21.2	21.2	57	12.4	18	27	292	0.0	1012.3	751	0.000	4.4
20100726 16:15	21.2	21.2	21.2	57	12.3	16	27	270	0.0	1012.3	731	0.000	4.3
20100726 16:20	21.2	21.2	21.2	57	12.3	11	24	270	0.0	1012.2	704	0.000	3.7
20100726 16:25	20.9	20.9	20.9	54	11.3	16	27	315	0.0	1012.3	514	0.000	3.6
20100726 16:30	20.7	20.7	20.7	55	11.3	14	23	292	0.0	1012.2	297	0.000	2.8
20100726 16:35	20.2	20.2	20.2	56	11.2	13	21	292	0.0	1012.2	190	0.000	2.3
20100726 16:40	19.9	19.9	19.9	56	10.9	14	24	292	0.0	1012.3	218	0.000	2.7
20100726 16:45	20.0	20.0	20.0	56	10.9	14	26	270	0.0	1012.3	678	0.000	3.2
20100726 16:50	20.4	20.4	20.4	55	11.0	13	27	292	0.0	1012.2	704	0.000	3.3
20100726 16:55	20.8	20.8	20.8	53	10.8	14	24	270	0.0	1012.1	695	0.000	3.0
20100726 17:00	20.8	20.8	20.8	52	10.6	16	26	270	0.0	1012.1	398	0.406	2.4
20100726 17:05	20.5	20.5	20.5	53	10.6	10	21	270	0.0	1012.2	278	0.000	2.1
20100726 17:10	20.3	20.3	20.3	54	10.7	10	19	315	0.0	1012.2	279	0.000	1.9
20100726 17:15	20.1	20.1	20.1	55	10.7	6	14	292	0.0	1012.3	262	0.000	1.6
20100726 17:20	19.8	19.8	19.8	57	11.1	6	13	292	0.0	1012.3	202	0.000	1.4
20100726 17:25	19.7	19.7	19.7	57	10.9	10	21	315	0.0	1012.3	186	0.000	1.3
20100726 17:30	19.4	19.4	19.4	58	11.0	10	18	315	0.0	1012.2	204	0.000	1.3
20100726 17:35	19.4	19.4	19.4	57	10.6	10	18	292	0.0	1012.2	215	0.000	1.3
20100726 17:40	19.4	19.4	19.4	58	11.0	10	16	292	0.0	1012.2	205	0.000	1.2
20100726 17:45	19.4	19.4	19.4	58	11.0	6	14	292	0.0	1012.2	210	0.000	1.0
20100726 17:50	19.4	19.4	19.4	58	10.9	8	16	292	0.0	1012.2	197	0.000	0.9
20100726 17:55	19.4	19.4	19.4	58	10.9	6	14	315	0.0	1012.2	140	0.000	0.7
20100726 18:00	19.3	19.3	19.3	59	11.1	8	14	270	0.0	1012.2	129	0.178	0.7
20100726 18:05	19.2	19.2	19.2	60	11.2	5	11	292	0.0	1012.3	114	0.000	0.6
20100726 18:10	19.1	19.1	19.1	60	11.2	5	10	292	0.0	1012.3	104	0.000	0.6
20100726 18:15	19.0	19.0	19.0	60	11.1	8	16	270	0.0	1012.3	113	0.000	0.6
20100726 18:20	18.9	18.9	18.9	60	10.9	8	16	270	0.0	1012.2	130	0.000	0.7
20100726 18:25	18.8	18.8	18.8	61	11.1	6	13	270	0.0	1012.4	120	0.000	0.6
20100726 18:30	18.8	18.8	18.8	61	11.1	3	8	270	0.0	1012.3	103	0.000	0.5
20100726 18:35	18.8	18.8	18.8	63	11.6	6	11	292	0.0	1012.4	96	0.000	0.5
20100726 18:40	18.7	18.7	18.7	63	11.5	6	10	270	0.0	1012.3	102	0.000	0.5
20100726 18:45	18.6	18.6	18.6	62	11.1	6	10	315	0.0	1012.4	98	0.000	0.4
20100726 18:50	18.5	18.5	18.5	63	11.3	5	10	292	0.0	1012.4	85	0.000	0.0
20100726 18:55	18.4	18.4	18.4	64	11.5	5	8	292	0.0	1012.4	76	0.000	0.0
20100726 19:00	18.4	18.4	18.4	64	11.5	5	10	292	0.0	1012.4	72	0.102	0.0
20100726 19:05	18.3	18.3	18.3	64	11.4	3	8	292	0.0	1012.1	67	0.000	0.0
20100726 19:10	18.3	18.3	18.3	65	11.6	3	6	292	0.0	1012.1	71	0.000	0.0
20100726 19:15	18.2	18.2	18.2	65	11.5	5	8	292	0.0	1012.1	91	0.000	0.0
20100726 19:20	18.2	18.2	18.2	65	11.5	2	6	292	0.0	1012.1	80	0.000	0.0
20100726 19:25	18.2	18.2	18.2	66	11.8	3	8	292	0.0	1012.1	69	0.000	0.0
20100726 19:30	18.2	18.2	18.2	65	11.5	3	6	292	0.0	1012.1	55	0.000	0.0
20100726 19:35	18.2	18.2	18.2	64	11.2	3	6	292	0.0	1012.1	43	0.000	0.0
20100726 19:40	18.1	18.1	18.1	65	11.4	3	6	292	0.0	1012.2	33	0.000	0.0
20100726 19:45	18.0	18.0	18.0	65	11.3	3	8	292	0.0	1012.3	33	0.000	0.0
20100726 19:50	17.9	17.9	17.9	64	11.0	3	6	292	0.0	1012.2	34	0.000	0.0
20100726 19:55	17.9	17.9	17.9	64	11.0	3	6	292	0.0	1012.2	33	0.000	0.0
20100726 20:00	17.8	17.8	17.8	65	11.1	2	5	292	0.0	1012.2	22	0.051	0.0
20100726 20:05	17.7	17.7	17.7	65	11.1	2	8	292	0.0	1012.1	18	0.000	0.0
20100726 20:10	17.7	17.7	17.7	64	10.8	3	8	270	0.0	1012.0	15	0.000	0.0
20100726 20:15	17.6	17.6	17.6	63	10.4	5	8	270	0.0	1011.9	12	0.000	0.0
20100726 20:20	17.5	17.5	17.5	64	10.6	5	6	270	0.0	1011.9	10	0.000	0.0
20100726 20:25	17.4	17.4	17.4	65	10.7	5	6	270	0.0	1012.1	8	0.000	0.0
20100726 20:30	17.3	17.3	17.3	66	10.9	3	6	270	0.0	1012.2	6	0.000	0.0
20100726 20:35	17.2	17.2	17.2	67	11.0	5	10	270	0.0	1012.2	4	0.000	0.0
20100726 20:40	17.1	17.1	17.1	67	10.9	5	10	270	0.0	1012.1	0	0.000	0.0
20100726 20:45	16.9	16.9	16.9	67	10.8	3	8	248	0.0	1012.2	0	0.000	0.0
20100726 20:50	16.9	16.9	16.9	66	10.5	5	10	248	0.0	1012.1	0	0.000	0.0
20100726 20:55	16.8	16.8	16.8	65	10.2	6	11	248	0.0	1012.2	0	0.000	0.0
20100726 21:00	16.8	16.8	16.8	66	10.4	5	8	248	0.0	1012.2	0	0.025	0.0
20100726 21:05	16.8	16.8	16.8	66	10.4	2	6	248	0.0	1012.2	0	0.000	0.0
20100726 21:10	16.8	16.8	16.8	66	10.4	3	6	248	0.0	1012.2	0	0.000	0.0
20100726 21:15	16.8	16.8	16.8	67	10.6	2	5	248	0.0	1012.3	0	0.000	0.0
20100726 21:20	16.8	16.8	16.8	67	10.6	2	6	248	0.0	1012.3	0	0.000	0.0
20100726 21:25	16.8	16.8	16.8	68	10.8	0	5	248	0.0	1012.3	0	0.000	0.0
20100726 21:30	16.7	16.7	16.7	68	10.8	2	6	248	0.0	1012.4	0	0.000	0.0
20100726 21:35	16.8	16.8	16.8	69	11.1	2	5	248	0.0	1012.4	0	0.000	0.0
20100726 21:40	16.7	16.7	16.7	69	11.0	2	5	248	0.0	1012.4	0	0.000	0.0
20100726 21:45	16.7	16.7	16.7	70	11.2	0	3	248	0.0	1012.5	0	0.000	0.0
20100726 21:50	16.7	16.7	16.7	72	11.6	6	21	315	0.0	1012.8	0	0.000	0.0
20100726 21:55	16.4	16.4	16.4	73	11.6	2	11	315	0.0	1012.7	0	0.000	0.0
20100726 22:00	16.2	16.2	16.2	75	11.8	0	5	22	0.0	1012.8	0	0.025	0.0
20100726 22:05	15.9	15.9	15.9	77	11.9	0	3	22	0.0	1012.7	0	0.000	0.0
20100726 22:10	15.7	15.7	15.7	78	11.8	0	2	0	0.0	1012.7	0	0.000	0.0
20100726 22:15	15.4	15.4	15.4	79	11.8	0	3	0	0.0	1012.7	0	0.000	0.0
20100726 22:20	15.1	15.1	15.1	80	11.7	0	2	0	0.0	1012.8	0	0.000	0.0
20100726 22:25	15.0	15.0	15.0	80	11.6	0	2	0	0.0	1012.8	0	0.000	0.0
20100726 22:30	14.8	14.8	14.8	82	11.8	0	3	0	0.2	1012.9	0	0.000	0.0
20100726 22:35	14.7	14.7	14.7	82	11.6	0	2	0	0.0	1012.9	0	0.000	0.0
20100726 22:40	14.5	14.5	14.5	83	11.6	0	2	0	0.0	1012.9	0	0.000	0.0
20100726 22:45	14.3	14.3	14.3	83	11.4	0	2	0	0.0	1012.9	0	0.000	0.0
20100726 22:50	14.2	14.2	14.2	84	11.5	0	2	0	0.0	1012.8	0	0.000	0.0
20100726 22:55	14.1	14.1	14.1	84	11.4	0	2	0	0.0	1012.8	0	0.000	0.0
20100726 23:00	14.0	14.0	14.0	85	11.5	0	2	0	0.0	1012.8	0	0.025	0.0
20100726 23:05	13.9	13.9	13.9	85	11.5	0	3	0	0.0	1012.6	0	0.000	0.0
20100726 23:10	13.8	13.8	13.8	85	11.4	0	3	22	0.0	1012.5	0	0.000	0.0
20100726 23:15	13.8	13.8	13.8	85	11.4	2	3	22	0.0	1012.5	0	0.000	0.0
20100726 23:20	13.8	13.8	13.8	86	11.5	0	3	22	0.0	1012.5	0	0.000	0.0
20100726 23:25	13.8	13.8	13.8	86	11.5	0	5	22	0.0	1012.6	0	0.000	0.0
20100726 23:30	13.8	13.8	13.8	86	11.5	0	2	22	0.0	1012.6	0	0.000	0.0
20100726 23:35	13.8	13.8	13.8	86	11.5	0	0	-100000	0.0	1012.6	0	0.000	0.0
20100726 23:40	13.8	13.8	13.8	86	11.5	0	0	-100000	0.0	1012.6	0	0.000	0.0
20100726 23:45	13.8	13.8	13.8	86	11.5	0	0	-100000	0.0	1012.6	0	0.000	0.0
20100726 23:50	13.8	13.8	13.8	86	11.5	0	0	-100000	0.0	1012.6	0	0.000	0.0
20100726 23:55	13.8	13.8	13.8	86	11.5	0	0	-100000	0.0	1012.6	0	0.000	0.0



Please note the license to use and transfer of this data:
http://creativecommons.org/licenses/by-nc-sa/3.0/deed.en

Bitte beachten sie die Lizenz zur Verwertung und Weitergabe der Daten:
http://creativecommons.org/licenses/by-nc-sa/3.0/deed.de

zurück zur Übersicht der Archivdaten (Monats und Tagesdaten)

Cookies helfen bei der Bereitstellung von Inhalten. Durch die Nutzung dieser Seiten erklärst du dich damit einverstanden, dass Cookies auf deinem Rechner gespeichert werden. Weitere Information